Check out our new BloomSky Weather System.

Active alerts


No alerts


Thunder radar  blitzortung!


Rain radar more information rain snow radar


Visit our other weather sites:

Template documentation
and downloads

And another site



Weather Underground History page Text

Daily Summary for December 1, 2017 Units:  English    Metric   Both
« Previous Day
Next Day »
Daily Weekly Monthly Yearly Custom
  High: Low: Average:
Temperature: 75.4 °F 46.6 °F 59.3 °F
Dew Point: 56.8 °F 45.1 °F 51.6 °F
Humidity: 97 % 48 % 78 %
Wind Speed: 6.0 mph 0.0 mph 0.4 mph
Wind Gust: 8.0 mph - -
Wind:- - SSE
Pressure: 30.22 in 30.07 in -
Precipitation: 0.00 in    
Historical Graphs
 
 
Tabular Data for December 1, 2017
Time Temperature Dew Point Pressure Wind Wind Speed Wind Gust Humidity Rainfall Rate (Hourly)
00:01 50.5 °F 47.1 °F 30.18 in Calm   1.0 mph 88 % 0.00 in
00:06 50.5 °F 47.1 °F 30.18 in Calm   1.0 mph 88 % 0.00 in
00:10 50.2 °F 46.4 °F 30.17 in Calm     87 % 0.00 in
00:15 49.6 °F 45.9 °F 30.17 in Calm     87 % 0.00 in
00:20 49.3 °F 45.9 °F 30.17 in Calm     88 % 0.00 in
00:30 49.6 °F 46.6 °F 30.17 in Calm     89 % 0.00 in
00:35 49.6 °F 46.6 °F 30.17 in Calm     89 % 0.00 in
00:40 49.3 °F 46.2 °F 30.17 in Calm     89 % 0.00 in
00:46 48.9 °F 45.9 °F 30.17 in Calm     89 % 0.00 in
00:51 48.7 °F 45.7 °F 30.17 in Calm     89 % 0.00 in
00:56 48.9 °F 46.0 °F 30.17 in Calm     90 % 0.00 in
01:01 49.3 °F 46.8 °F 30.17 in Calm     91 % 0.00 in
01:06 49.3 °F 46.4 °F 30.17 in Calm     90 % 0.00 in
01:11 49.3 °F 46.4 °F 30.17 in Calm     90 % 0.00 in
01:16 49.3 °F 46.4 °F 30.17 in Calm     90 % 0.00 in
01:26 48.7 °F 45.9 °F 30.17 in Calm     90 % 0.00 in
01:36 48.4 °F 45.9 °F 30.17 in Calm     91 % 0.00 in
01:41 48.4 °F 45.9 °F 30.17 in Calm     91 % 0.00 in
01:46 48.4 °F 45.9 °F 30.17 in Calm     91 % 0.00 in
01:51 48.6 °F 46.4 °F 30.17 in Calm     92 % 0.00 in
01:56 48.6 °F 46.4 °F 30.16 in Calm     92 % 0.00 in
02:01 48.7 °F 46.6 °F 30.16 in Calm     92 % 0.00 in
02:04 48.7 °F 46.6 °F 30.16 in Calm     92 % 0.00 in
02:09 48.7 °F 46.6 °F 30.16 in Calm     92 % 0.00 in
02:25 48.4 °F 46.2 °F 30.16 in Calm     92 % 0.00 in
02:30 48.4 °F 46.2 °F 30.16 in Calm     92 % 0.00 in
02:35 48.0 °F 45.9 °F 30.16 in Calm     92 % 0.00 in
02:40 47.8 °F 45.7 °F 30.16 in Calm     92 % 0.00 in
02:50 48.2 °F 46.2 °F 30.16 in Calm     93 % 0.00 in
02:55 48.6 °F 46.6 °F 30.16 in Calm     93 % 0.00 in
03:00 48.7 °F 46.8 °F 30.16 in Calm     93 % 0.00 in
03:05 48.7 °F 46.8 °F 30.16 in Calm     93 % 0.00 in
03:10 48.7 °F 46.8 °F 30.16 in Calm     93 % 0.00 in
03:15 48.7 °F 46.8 °F 30.16 in Calm     93 % 0.00 in
03:20 49.1 °F 47.1 °F 30.17 in Calm     93 % 0.00 in
03:25 49.3 °F 47.3 °F 30.17 in Calm     93 % 0.00 in
03:30 49.5 °F 47.5 °F 30.17 in Calm     93 % 0.00 in
03:35 49.6 °F 47.7 °F 30.17 in Calm   1.0 mph 93 % 0.00 in
03:40 49.8 °F 47.8 °F 30.17 in Calm   1.0 mph 93 % 0.00 in
03:45 49.8 °F 47.7 °F 30.17 in Calm   1.0 mph 92 % 0.00 in
03:55 49.5 °F 47.3 °F 30.17 in Calm     92 % 0.00 in
04:00 49.5 °F 47.3 °F 30.16 in Calm     92 % 0.00 in
04:10 49.6 °F 47.7 °F 30.16 in Calm   1.0 mph 93 % 0.00 in
04:15 49.6 °F 47.7 °F 30.16 in Calm   1.0 mph 93 % 0.00 in
04:20 49.6 °F 47.7 °F 30.16 in Calm   1.0 mph 93 % 0.00 in
04:25 49.6 °F 47.7 °F 30.16 in Calm   1.0 mph 93 % 0.00 in
04:35 49.3 °F 47.1 °F 30.16 in Calm   1.0 mph 92 % 0.00 in
04:40 48.9 °F 46.9 °F 30.16 in Calm   1.0 mph 93 % 0.00 in
04:45 48.7 °F 46.8 °F 30.16 in Calm   1.0 mph 93 % 0.00 in
04:50 48.6 °F 46.6 °F 30.16 in Calm   1.0 mph 93 % 0.00 in
05:00 48.6 °F 46.9 °F 30.16 in Calm   1.0 mph 94 % 0.00 in
05:05 48.6 °F 46.9 °F 30.16 in Calm   1.0 mph 94 % 0.00 in
05:10 48.4 °F 46.4 °F 30.16 in Calm   1.0 mph 93 % 0.00 in
05:11 48.2 °F 46.2 °F 30.16 in Calm   1.0 mph 93 % 0.00 in
05:18 47.8 °F 45.9 °F 30.16 in Calm     93 % 0.00 in
05:23 47.5 °F 45.5 °F 30.16 in Calm     93 % 0.00 in
05:28 47.5 °F 45.9 °F 30.17 in Calm     94 % 0.00 in
05:33 47.3 °F 45.7 °F 30.17 in Calm     94 % 0.00 in
05:38 47.1 °F 45.5 °F 30.17 in Calm     94 % 0.00 in
05:43 47.1 °F 45.7 °F 30.17 in Calm     95 % 0.00 in
05:48 47.5 °F 46.0 °F 30.17 in Calm   1.0 mph 95 % 0.00 in
05:58 47.5 °F 46.0 °F 30.17 in Calm   1.0 mph 95 % 0.00 in
06:03 47.1 °F 45.7 °F 30.17 in Calm     95 % 0.00 in
06:08 47.1 °F 45.7 °F 30.18 in Calm     95 % 0.00 in
06:13 46.9 °F 45.5 °F 30.18 in Calm     95 % 0.00 in
06:18 46.9 °F 45.5 °F 30.18 in Calm     95 % 0.00 in
06:23 46.9 °F 45.5 °F 30.18 in Calm     95 % 0.00 in
06:28 46.8 °F 45.3 °F 30.18 in Calm     95 % 0.00 in
06:33 46.8 °F 45.7 °F 30.18 in Calm     96 % 0.00 in
06:38 46.6 °F 45.1 °F 30.18 in Calm     95 % 0.00 in
06:43 46.8 °F 45.7 °F 30.18 in Calm     96 % 0.00 in
06:48 47.1 °F 46.0 °F 30.19 in Calm     96 % 0.00 in
06:53 47.5 °F 46.4 °F 30.19 in Calm     96 % 0.00 in
06:58 47.5 °F 46.4 °F 30.19 in Calm   1.0 mph 96 % 0.00 in
07:08 47.8 °F 46.9 °F 30.19 in Calm   1.0 mph 97 % 0.00 in
07:13 48.2 °F 47.3 °F 30.19 in Calm   1.0 mph 97 % 0.00 in
07:18 48.4 °F 47.3 °F 30.19 in Calm   1.0 mph 96 % 0.00 in
07:23 48.6 °F 47.5 °F 30.19 in Calm   1.0 mph 96 % 0.00 in
07:28 48.7 °F 47.7 °F 30.19 in Calm   1.0 mph 96 % 0.00 in
07:33 48.9 °F 48.0 °F 30.19 in Calm   1.0 mph 97 % 0.00 in
07:38 49.5 °F 48.6 °F 30.20 in Calm   1.0 mph 97 % 0.00 in
07:43 50.0 °F 49.1 °F 30.20 in Calm   1.0 mph 97 % 0.00 in
07:48 50.5 °F 49.5 °F 30.20 in Calm   1.0 mph 96 % 0.00 in
07:58 52.2 °F 51.1 °F 30.20 in Calm   1.0 mph 96 % 0.00 in
08:13 53.8 °F 52.2 °F 30.21 in Calm   1.0 mph 94 % 0.00 in
08:19 54.5 °F 52.9 °F 30.21 in Calm   1.0 mph 94 % 0.00 in
08:24 55.0 °F 53.1 °F 30.21 in Calm   1.0 mph 93 % 0.00 in
08:34 57.4 °F 54.5 °F 30.21 in Calm   1.0 mph 90 % 0.00 in
08:39 58.5 °F 54.7 °F 30.22 in Calm   1.0 mph 87 % 0.00 in
08:44 59.4 °F 54.9 °F 30.22 in East 1.0 mph 1.0 mph 85 % 0.00 in
08:49 59.9 °F 54.7 °F 30.22 in Calm   1.0 mph 83 % 0.00 in
08:54 60.8 °F 54.9 °F 30.22 in Calm   2.0 mph 81 % 0.00 in
08:56 61.0 °F 54.5 °F 30.22 in Calm   2.0 mph 79 % 0.00 in
09:06 61.2 °F 54.3 °F 30.22 in SE 2.0 mph 3.0 mph 78 % 0.00 in
09:11 61.5 °F 54.7 °F 30.22 in NE 1.0 mph 3.0 mph 78 % 0.00 in
09:16 62.1 °F 54.7 °F 30.22 in ENE 1.0 mph 3.0 mph 77 % 0.00 in
09:26 63.5 °F 55.4 °F 30.22 in East 1.0 mph 3.0 mph 75 % 0.00 in
09:31 63.9 °F 55.0 °F 30.22 in ENE 1.0 mph 3.0 mph 73 % 0.00 in
09:36 64.0 °F 55.2 °F 30.22 in Calm   2.0 mph 73 % 0.00 in
09:41 64.2 °F 55.0 °F 30.22 in Calm   2.0 mph 72 % 0.00 in
09:46 64.2 °F 55.4 °F 30.22 in Calm   2.0 mph 73 % 0.00 in
09:49 64.2 °F 55.4 °F 30.22 in ENE 1.0 mph 2.0 mph 73 % 0.00 in
09:54 65.1 °F 55.4 °F 30.22 in Calm   2.0 mph 71 % 0.00 in
09:59 65.5 °F 55.8 °F 30.22 in Calm   2.0 mph 71 % 0.00 in
10:04 66.0 °F 55.9 °F 30.22 in NE 1.0 mph 2.0 mph 70 % 0.00 in
10:09 66.6 °F 56.5 °F 30.21 in East 1.0 mph 2.0 mph 70 % 0.00 in
10:14 67.3 °F 56.8 °F 30.21 in SSE 2.0 mph 2.0 mph 69 % 0.00 in
10:15 67.3 °F 56.3 °F 30.21 in SE 2.0 mph 2.0 mph 68 % 0.00 in
10:21 67.5 °F 56.1 °F 30.21 in SW 2.0 mph 3.0 mph 67 % 0.00 in
10:32 68.4 °F 56.1 °F 30.21 in Calm   4.0 mph 65 % 0.00 in
10:37 68.5 °F 56.3 °F 30.20 in Calm   4.0 mph 65 % 0.00 in
10:42 68.9 °F 56.3 °F 30.20 in North 1.0 mph 3.0 mph 64 % 0.00 in
10:47 69.4 °F 56.3 °F 30.20 in Calm   3.0 mph 63 % 0.00 in
10:52 69.8 °F 56.7 °F 30.20 in ESE 1.0 mph 3.0 mph 63 % 0.00 in
10:57 69.6 °F 55.9 °F 30.19 in SE 2.0 mph 6.0 mph 62 % 0.00 in
11:07 70.0 °F 55.9 °F 30.19 in NNW 1.0 mph 6.0 mph 61 % 0.00 in
11:12 70.3 °F 56.7 °F 30.19 in SW 1.0 mph 4.0 mph 62 % 0.00 in
11:17 70.9 °F 56.3 °F 30.19 in ESE 3.0 mph 4.0 mph 60 % 0.00 in
11:22 70.5 °F 55.9 °F 30.19 in SSW 2.0 mph 4.0 mph 60 % 0.00 in
11:27 70.9 °F 56.3 °F 30.19 in Calm   4.0 mph 60 % 0.00 in
11:32 71.1 °F 55.0 °F 30.18 in Calm   4.0 mph 57 % 0.00 in
11:37 71.2 °F 56.1 °F 30.18 in ENE 2.0 mph 4.0 mph 59 % 0.00 in
11:42 71.6 °F 55.6 °F 30.18 in Calm   3.0 mph 57 % 0.00 in
11:47 72.0 °F 56.3 °F 30.17 in ENE 1.0 mph 3.0 mph 58 % 0.00 in
12:02 71.2 °F 55.8 °F 30.17 in NNE 1.0 mph 3.0 mph 58 % 0.00 in
12:07 72.0 °F 55.9 °F 30.17 in Calm   2.0 mph 57 % 0.00 in
12:17 72.5 °F 56.8 °F 30.16 in Calm   3.0 mph 58 % 0.00 in
12:22 72.9 °F 55.8 °F 30.16 in WNW 1.0 mph 3.0 mph 55 % 0.00 in
12:27 72.3 °F 55.8 °F 30.15 in North 2.0 mph 6.0 mph 56 % 0.00 in
12:37 72.0 °F 55.4 °F 30.14 in ENE 1.0 mph 6.0 mph 56 % 0.00 in
12:47 71.8 °F 54.3 °F 30.14 in NE 2.0 mph 5.0 mph 54 % 0.00 in
12:57 72.3 °F 55.8 °F 30.13 in NNE 1.0 mph 6.0 mph 56 % 0.00 in
13:02 72.3 °F 53.8 °F 30.13 in NNW 4.0 mph 6.0 mph 52 % 0.00 in
13:07 72.0 °F 53.4 °F 30.13 in WSW 3.0 mph 7.0 mph 52 % 0.00 in
13:20 73.4 °F 55.8 °F 30.12 in North 1.0 mph 4.0 mph 54 % 0.00 in
13:31 72.5 °F 54.0 °F 30.11 in WSW 2.0 mph 6.0 mph 52 % 0.00 in
13:36 72.3 °F 54.7 °F 30.11 in North 3.0 mph 6.0 mph 54 % 0.00 in
13:41 72.7 °F 55.0 °F 30.10 in North 2.0 mph 7.0 mph 54 % 0.00 in
13:46 72.9 °F 54.7 °F 30.10 in NNW 2.0 mph 7.0 mph 53 % 0.00 in
13:51 73.0 °F 54.9 °F 30.10 in NE 1.0 mph 7.0 mph 53 % 0.00 in
13:56 73.8 °F 54.5 °F 30.09 in NNW 1.0 mph 6.0 mph 51 % 0.00 in
14:16 74.1 °F 54.9 °F 30.09 in Calm   8.0 mph 51 % 0.00 in
14:21 74.1 °F 54.3 °F 30.09 in NNW 2.0 mph 8.0 mph 50 % 0.00 in
14:26 73.8 °F 54.5 °F 30.09 in Calm   8.0 mph 51 % 0.00 in
14:36 74.7 °F 54.9 °F 30.08 in NNW 2.0 mph 6.0 mph 50 % 0.00 in
14:41 74.5 °F 54.7 °F 30.08 in NW 4.0 mph 6.0 mph 50 % 0.00 in
14:46 73.9 °F 54.7 °F 30.08 in NW 2.0 mph 6.0 mph 51 % 0.00 in
14:51 73.9 °F 55.2 °F 30.08 in North 6.0 mph 6.0 mph 52 % 0.00 in
14:56 73.9 °F 55.2 °F 30.08 in NNW 3.0 mph 6.0 mph 52 % 0.00 in
15:01 74.1 °F 54.9 °F 30.08 in North 2.0 mph 6.0 mph 51 % 0.00 in
15:06 73.9 °F 54.7 °F 30.08 in North 1.0 mph 6.0 mph 51 % 0.00 in
15:11 74.5 °F 54.7 °F 30.08 in NNE 5.0 mph 6.0 mph 50 % 0.00 in
15:21 75.0 °F 54.5 °F 30.08 in NNE 1.0 mph 6.0 mph 49 % 0.00 in
15:26 75.0 °F 54.5 °F 30.07 in East 1.0 mph 6.0 mph 49 % 0.00 in
15:31 75.0 °F 54.0 °F 30.07 in Calm   4.0 mph 48 % 0.00 in
15:36 75.0 °F 54.5 °F 30.07 in Calm   4.0 mph 49 % 0.00 in
15:41 75.2 °F 54.7 °F 30.07 in East 2.0 mph 4.0 mph 49 % 0.00 in
15:46 75.2 °F 54.1 °F 30.07 in Calm   3.0 mph 48 % 0.00 in
15:47 75.4 °F 54.3 °F 30.07 in SW 2.0 mph 3.0 mph 48 % 0.00 in
15:57 75.4 °F 54.9 °F 30.07 in Calm   4.0 mph 49 % 0.00 in
16:02 75.0 °F 54.5 °F 30.07 in SE 1.0 mph 4.0 mph 49 % 0.00 in
16:08 74.8 °F 55.0 °F 30.07 in Calm   4.0 mph 50 % 0.00 in
16:23 73.9 °F 54.7 °F 30.08 in Calm   3.0 mph 51 % 0.00 in
16:28 73.8 °F 54.5 °F 30.08 in ESE 1.0 mph 3.0 mph 51 % 0.00 in
16:38 73.2 °F 54.5 °F 30.08 in SSE 2.0 mph 3.0 mph 52 % 0.00 in
16:43 73.2 °F 55.0 °F 30.08 in Calm   2.0 mph 53 % 0.00 in
16:48 73.0 °F 54.9 °F 30.08 in SSE 2.0 mph 2.0 mph 53 % 0.00 in
16:53 72.7 °F 55.0 °F 30.08 in Calm   2.0 mph 54 % 0.00 in
16:58 72.3 °F 54.7 °F 30.08 in Calm   2.0 mph 54 % 0.00 in
17:03 72.1 °F 55.0 °F 30.08 in Calm   4.0 mph 55 % 0.00 in
17:08 71.8 °F 55.2 °F 30.08 in SE 1.0 mph 4.0 mph 56 % 0.00 in
17:13 71.2 °F 55.2 °F 30.08 in Calm   4.0 mph 57 % 0.00 in
17:28 70.5 °F 55.6 °F 30.08 in Calm   1.0 mph 59 % 0.00 in
17:33 70.0 °F 55.0 °F 30.09 in Calm   1.0 mph 59 % 0.00 in
17:45 68.9 °F 54.9 °F 30.09 in Calm   1.0 mph 61 % 0.00 in
17:50 68.4 °F 54.9 °F 30.09 in Calm   1.0 mph 62 % 0.00 in
17:55 67.8 °F 54.7 °F 30.09 in Calm   1.0 mph 63 % 0.00 in
18:00 67.5 °F 54.9 °F 30.09 in Calm   1.0 mph 64 % 0.00 in
18:10 66.4 °F 55.0 °F 30.09 in Calm   1.0 mph 67 % 0.00 in
18:15 65.7 °F 54.3 °F 30.10 in Calm     67 % 0.00 in
18:30 64.0 °F 53.6 °F 30.10 in Calm     69 % 0.00 in
18:40 62.8 °F 53.6 °F 30.10 in Calm     72 % 0.00 in
18:50 61.9 °F 53.8 °F 30.11 in Calm     75 % 0.00 in
18:55 61.5 °F 54.0 °F 30.11 in Calm     76 % 0.00 in
19:00 61.2 °F 53.6 °F 30.11 in Calm     76 % 0.00 in
19:05 61.2 °F 54.3 °F 30.11 in Calm     78 % 0.00 in
19:15 61.7 °F 54.9 °F 30.11 in Calm     78 % 0.00 in
19:20 61.9 °F 54.9 °F 30.11 in ESE 1.0 mph 1.0 mph 78 % 0.00 in
19:30 61.3 °F 54.5 °F 30.12 in Calm   1.0 mph 78 % 0.00 in
19:35 61.3 °F 54.9 °F 30.12 in Calm   1.0 mph 79 % 0.00 in
19:50 60.8 °F 54.7 °F 30.12 in Calm   1.0 mph 80 % 0.00 in
19:56 60.6 °F 54.5 °F 30.12 in Calm   1.0 mph 80 % 0.00 in
20:01 60.3 °F 54.3 °F 30.12 in Calm   1.0 mph 81 % 0.00 in
20:06 59.9 °F 54.1 °F 30.12 in Calm     81 % 0.00 in
20:11 59.5 °F 54.0 °F 30.12 in Calm     82 % 0.00 in
20:16 59.0 °F 53.6 °F 30.12 in Calm     82 % 0.00 in
20:21 58.6 °F 53.2 °F 30.12 in Calm     82 % 0.00 in
20:26 58.3 °F 53.1 °F 30.12 in Calm     83 % 0.00 in
20:36 58.3 °F 53.8 °F 30.12 in Calm   2.0 mph 85 % 0.00 in
20:46 58.3 °F 53.8 °F 30.12 in Calm     85 % 0.00 in
20:56 58.8 °F 54.3 °F 30.13 in Calm   1.0 mph 85 % 0.00 in
21:01 58.8 °F 54.0 °F 30.13 in Calm   1.0 mph 84 % 0.00 in
21:08 58.6 °F 53.4 °F 30.13 in Calm     83 % 0.00 in
21:13 58.1 °F 53.2 °F 30.13 in Calm     84 % 0.00 in
21:19 57.6 °F 53.1 °F 30.13 in Calm     85 % 0.00 in
21:23 57.4 °F 52.9 °F 30.13 in Calm     85 % 0.00 in
21:24 57.4 °F 52.9 °F 30.13 in Calm     85 % 0.00 in
21:30 57.2 °F 53.1 °F 30.13 in Calm     86 % 0.00 in
21:35 57.2 °F 53.1 °F 30.12 in Calm     86 % 0.00 in
21:45 57.2 °F 53.1 °F 30.12 in Calm     86 % 0.00 in
21:50 56.8 °F 52.7 °F 30.13 in Calm     86 % 0.00 in
22:00 56.8 °F 53.1 °F 30.13 in Calm   1.0 mph 87 % 0.00 in
22:05 56.8 °F 53.1 °F 30.13 in Calm   1.0 mph 87 % 0.00 in
22:10 56.8 °F 53.1 °F 30.13 in Calm     87 % 0.00 in
22:15 56.5 °F 52.7 °F 30.13 in Calm     87 % 0.00 in
22:20 56.1 °F 52.3 °F 30.13 in Calm     87 % 0.00 in
22:25 55.9 °F 52.5 °F 30.13 in Calm     88 % 0.00 in
22:40 55.2 °F 52.0 °F 30.13 in Calm     89 % 0.00 in
22:45 55.0 °F 51.8 °F 30.13 in Calm     89 % 0.00 in
22:50 54.9 °F 51.6 °F 30.13 in Calm     89 % 0.00 in
22:55 54.9 °F 52.0 °F 30.13 in Calm     90 % 0.00 in
23:00 54.9 °F 52.0 °F 30.13 in Calm     90 % 0.00 in
23:05 54.9 °F 52.0 °F 30.13 in Calm     90 % 0.00 in
23:10 54.7 °F 51.8 °F 30.13 in Calm     90 % 0.00 in
23:20 54.3 °F 51.4 °F 30.13 in Calm     90 % 0.00 in
23:25 54.3 °F 51.8 °F 30.13 in Calm     91 % 0.00 in
23:31 54.0 °F 51.4 °F 30.13 in Calm     91 % 0.00 in
23:36 53.8 °F 51.3 °F 30.13 in Calm     91 % 0.00 in
23:41 53.4 °F 50.9 °F 30.13 in Calm     91 % 0.00 in
23:46 53.2 °F 50.9 °F 30.13 in Calm     92 % 0.00 in
23:51 53.1 °F 50.7 °F 30.12 in Calm     92 % 0.00 in
Spring, Texas: Villages of Bridgestone
Compliments of Weather Underground - 2.5 mb

Script developed by  Jim McMurry - jmcmurry@mwt.net Adapted for the template by  Wim van der Kuil - Leuven-Template.eu

You find our weather info also at:

UK Metoffice

WeatherCloud

Weather Underground

Mid-South Weather Network

AWEKAS

Citizen Weather Observer Program (CWOP)

HAMweather, WeatherForYou, PWS Weather

Equipment we use:

Weather-station
Davis Vantage Vue

Weather-program
Meteohub

Weather-server
Debian 7.9 x86 (Guest)

Provider
DreamHost

Davis Vantage Vue

Meteohub

Debian 7.9 x86 (Guest)

DreamHost